Time;durP1;ratioP1;P1;durP2;ratioP2;P2;SDS_P1;SDS_P2;PMS_P1;PMS_P2;Temp;Humidity;BMP_temperature;BMP_pressure;BME280_temperature;BME280_humidity;BME280_pressure;Samples;Min_cycle;Max_cycle;Signal;HPM_P1;HPM_P2
2023/08/20 00:01:36;;;;;;;;;;;23.80;47.40;;;20.27;89.43;95832.22;5018893;28;19914;-48
2023/08/20 00:04:03;;;;;;;;;;;23.80;47.50;;;20.26;89.36;95831.44;5010566;28;20390;-49
2023/08/20 00:06:29;;;;;;;;;;;23.80;47.70;;;20.27;89.90;95829.53;5001931;28;19909;-46
2023/08/20 00:08:55;;;;;;;;;;;23.80;47.90;;;20.27;89.83;95830.31;5012358;28;19954;-48
2023/08/20 00:11:20;;;;;;;;;;;23.80;47.90;;;20.20;90.97;95824.59;5006676;28;19920;-49
2023/08/20 00:13:46;;;;;;;;;;;23.80;47.90;;;20.20;90.59;95837.34;5013287;28;19924;-53
2023/08/20 00:16:12;;;;;;;;;;;23.80;48.00;;;20.20;89.94;95831.94;5002445;28;19913;-53
2023/08/20 00:18:39;;;;;;;;;;;23.70;48.00;;;20.20;90.05;95829.22;5006413;28;19913;-51
2023/08/20 00:21:06;;;;;;;;;;;23.70;48.10;;;20.15;90.44;95832.91;5005380;28;19955;-48
2023/08/20 00:23:32;;;;;;;;;;;23.70;48.20;;;20.10;89.97;95817.63;4999457;28;19913;-50
2023/08/20 00:25:59;;;;;;;;;;;23.70;48.30;;;20.08;90.15;95819.06;5002206;28;19954;-49
2023/08/20 00:28:25;;;;;;;;;;;23.70;48.40;;;20.07;90.20;95822.88;5011703;28;20268;-48
2023/08/20 00:30:51;;;;;;;;;;;23.60;48.50;;;20.07;90.37;95826.38;5001535;28;19918;-45
2023/08/20 00:33:17;;;;;;;;;;;23.60;48.50;;;20.04;90.16;95820.81;5026412;28;19909;-44
2023/08/20 00:35:43;;;;;;;;;;;23.60;48.60;;;19.97;90.92;95823.22;5012190;28;19962;-47
2023/08/20 00:38:08;;;;;;;;;;;23.60;48.70;;;19.87;92.09;95833.22;5000798;28;20326;-45
2023/08/20 00:40:34;;;;;;;;;;;23.60;48.80;;;19.80;92.57;95826.69;5002380;28;20406;-47
2023/08/20 00:43:00;;;;;;;;;;;23.50;48.80;;;19.79;92.61;95831.31;5010358;28;19913;-46
2023/08/20 00:45:27;;;;;;;;;;;23.50;48.90;;;19.81;92.55;95836.41;5013375;28;19912;-45
2023/08/20 00:47:53;;;;;;;;;;;23.50;49.00;;;19.79;92.47;95841.31;5004719;28;19920;-45
2023/08/20 00:50:19;;;;;;;;;;;23.40;49.10;;;19.82;92.22;95843.38;5005531;28;19913;-49
2023/08/20 00:52:47;;;;;;;;;;;23.40;49.10;;;19.81;91.18;95850.72;4999470;28;19909;-50
2023/08/20 00:55:13;;;;;;;;;;;23.40;49.20;;;19.77;90.29;95854.34;5008503;28;19909;-46
2023/08/20 00:57:40;;;;;;;;;;;23.40;49.30;;;19.73;90.36;95859.59;5006962;28;20008;-44
2023/08/20 01:00:09;;;;;;;;;;;23.30;49.30;;;19.69;92.41;95860.56;5014067;28;19912;-45
2023/08/20 01:02:35;;;;;;;;;;;23.30;49.40;;;19.60;94.13;95852.41;4996504;28;19917;-46
2023/08/20 01:05:07;;;;;;;;;;;23.30;49.50;;;19.59;93.01;95854.31;5003234;28;19913;-48
2023/08/20 01:07:44;;;;;;;;;;;23.30;49.60;;;19.56;93.48;95851.44;5009215;28;19913;-43
2023/08/20 01:10:55;;;;;;;;;;;23.20;49.60;;;19.56;94.02;95854.16;5019750;28;19917;-42
2023/08/20 01:13:21;;;;;;;;;;;23.20;49.80;;;19.55;93.98;95845.22;5005470;28;19913;-45
2023/08/20 01:15:47;;;;;;;;;;;23.20;50.00;;;19.52;94.41;95850.47;5011119;28;20043;-48
2023/08/20 01:18:12;;;;;;;;;;;23.20;50.10;;;19.51;94.54;95846.19;5010957;28;19952;-43
2023/08/20 01:20:50;;;;;;;;;;;23.10;50.10;;;19.48;94.81;95850.28;4996589;28;19996;-42
2023/08/20 01:23:48;;;;;;;;;;;23.10;50.20;;;19.43;95.45;95850.47;5017956;28;19912;-45
2023/08/20 01:26:57;;;;;;;;;;;23.10;50.20;;;19.40;96.01;95851.09;5003427;28;19916;-46
2023/08/20 01:29:23;;;;;;;;;;;23.00;50.40;;;19.39;95.78;95861.06;5012208;28;20183;-44
2023/08/20 01:31:51;;;;;;;;;;;23.00;50.50;;;19.38;95.75;95856.00;5011567;28;19917;-46
2023/08/20 01:34:17;;;;;;;;;;;23.10;50.60;;;19.35;95.89;95862.03;5011617;28;19963;-46
2023/08/20 01:36:42;;;;;;;;;;;23.00;50.70;;;19.33;95.78;95861.53;5010534;28;20378;-47
2023/08/20 01:39:08;;;;;;;;;;;23.00;50.70;;;19.30;96.43;95864.88;5003920;28;19960;-43
2023/08/20 01:41:35;;;;;;;;;;;23.00;50.80;;;19.27;96.60;95862.78;5003275;28;19917;-45
2023/08/20 01:44:01;;;;;;;;;;;23.00;50.90;;;19.24;96.67;95847.22;5002896;28;20370;-44
2023/08/20 01:46:26;;;;;;;;;;;22.90;50.90;;;19.23;96.56;95848.31;5001181;28;20007;-43
2023/08/20 01:48:52;;;;;;;;;;;22.90;51.00;;;19.19;97.20;95850.88;5010998;28;19909;-46
2023/08/20 01:51:18;;;;;;;;;;;22.90;51.10;;;19.24;96.58;95852.63;5011377;28;20437;-48
2023/08/20 01:53:43;;;;;;;;;;;22.90;51.20;;;19.26;96.58;95856.59;5009418;28;19946;-44
2023/08/20 01:56:13;;;;;;;;;;;22.90;51.30;;;19.25;97.09;95862.31;5000795;28;19917;-43
2023/08/20 01:58:39;;;;;;;;;;;22.90;51.30;;;19.22;96.94;95854.84;5011221;28;19921;-45
2023/08/20 02:01:04;;;;;;;;;;;22.90;51.30;;;19.14;97.49;95859.09;5001196;28;19955;-45
2023/08/20 02:03:31;;;;;;;;;;;22.90;51.40;;;19.11;97.72;95855.09;5007213;28;20330;-46
2023/08/20 02:05:57;;;;;;;;;;;22.80;51.40;;;19.08;97.50;95857.63;5010664;28;19916;-42
2023/08/20 02:08:22;;;;;;;;;;;22.80;51.40;;;19.03;98.71;95852.41;4998322;28;19909;-43
2023/08/20 02:10:48;;;;;;;;;;;22.80;51.60;;;19.07;98.57;95856.06;5011432;28;20000;-48
2023/08/20 02:13:14;;;;;;;;;;;22.70;51.60;;;19.11;98.09;95860.50;5008139;28;20019;-42
2023/08/20 02:15:40;;;;;;;;;;;22.80;51.80;;;19.13;97.84;95855.59;4992107;28;19956;-43
2023/08/20 02:18:05;;;;;;;;;;;22.80;51.90;;;19.07;98.61;95862.25;5004242;28;20362;-46
2023/08/20 02:20:31;;;;;;;;;;;22.70;51.90;;;19.05;98.12;95858.25;5000089;28;19916;-46
2023/08/20 02:22:57;;;;;;;;;;;22.70;51.90;;;19.00;97.81;95855.72;4996872;28;20005;-45
2023/08/20 02:25:24;;;;;;;;;;;22.70;51.90;;;18.95;98.24;95862.81;5003900;28;20359;-48
2023/08/20 02:27:51;;;;;;;;;;;22.60;52.00;;;18.94;98.45;95850.44;5005007;28;19909;-45
2023/08/20 02:30:17;;;;;;;;;;;22.60;52.10;;;18.93;97.87;95859.66;4994310;28;19914;-46
2023/08/20 02:32:42;;;;;;;;;;;22.60;52.20;;;18.90;98.26;95859.50;5004827;28;19909;-44
2023/08/20 02:35:08;;;;;;;;;;;22.60;52.20;;;18.83;99.93;95859.13;4998657;28;19920;-45
2023/08/20 02:37:34;;;;;;;;;;;22.50;52.20;;;18.83;99.36;95859.91;4998107;28;19909;-46
2023/08/20 02:40:00;;;;;;;;;;;22.50;52.30;;;18.79;99.13;95860.84;5002314;28;19909;-44
2023/08/20 02:42:26;;;;;;;;;;;22.50;52.40;;;18.73;99.85;95868.28;5002890;28;19916;-44
2023/08/20 02:44:52;;;;;;;;;;;22.40;52.40;;;18.67;99.94;95877.56;5011383;28;19909;-44
2023/08/20 02:47:17;;;;;;;;;;;22.40;52.50;;;18.59;99.62;95876.44;5002942;28;19910;-46
2023/08/20 02:49:43;;;;;;;;;;;22.40;52.60;;;18.50;100.00;95883.66;4999002;28;20383;-43
2023/08/20 02:52:09;;;;;;;;;;;22.30;52.60;;;18.46;100.00;95878.09;5011030;28;19913;-44
2023/08/20 02:54:34;;;;;;;;;;;22.30;52.70;;;18.45;100.00;95883.78;5004117;28;20003;-44
2023/08/20 02:57:00;;;;;;;;;;;22.20;52.80;;;18.42;100.00;95882.50;5001136;28;19918;-43
2023/08/20 02:59:26;;;;;;;;;;;22.20;52.90;;;18.37;100.00;95890.72;5010443;28;20003;-46
2023/08/20 03:01:52;;;;;;;;;;;22.10;52.90;;;18.29;100.00;95879.88;5001379;28;20291;-43
2023/08/20 03:04:18;;;;;;;;;;;22.10;53.00;;;18.27;100.00;95889.06;5004402;28;19920;-46
2023/08/20 03:06:44;;;;;;;;;;;22.10;53.20;;;18.28;100.00;95884.47;5005713;28;19913;-43
2023/08/20 03:09:10;;;;;;;;;;;22.00;53.20;;;18.26;100.00;95890.16;4998076;28;19909;-44
2023/08/20 03:11:36;;;;;;;;;;;22.00;53.30;;;18.20;100.00;95891.38;5005661;28;20276;-44
2023/08/20 03:14:03;;;;;;;;;;;22.00;53.40;;;18.14;100.00;95892.59;5011940;28;20372;-44
2023/08/20 03:16:28;;;;;;;;;;;21.90;53.50;;;18.07;100.00;95886.84;5013856;28;20008;-46
2023/08/20 03:18:54;;;;;;;;;;;21.90;53.50;;;18.02;100.00;95884.28;5016555;28;20007;-43
2023/08/20 03:21:20;;;;;;;;;;;21.90;53.60;;;17.98;100.00;95891.34;5014322;28;20013;-43
2023/08/20 03:23:45;;;;;;;;;;;21.80;53.70;;;17.95;100.00;95889.28;5008101;28;20338;-44
2023/08/20 03:26:11;;;;;;;;;;;21.70;53.80;;;17.91;100.00;95899.06;4995140;28;19909;-44
2023/08/20 03:28:37;;;;;;;;;;;21.70;53.80;;;17.90;100.00;95903.66;4998329;28;19909;-43
2023/08/20 03:31:02;;;;;;;;;;;21.70;54.00;;;17.93;100.00;95907.66;5013401;28;19913;-43
2023/08/20 03:33:28;;;;;;;;;;;21.70;54.00;;;17.93;100.00;95913.03;5010877;28;20284;-48
2023/08/20 03:35:54;;;;;;;;;;;21.70;54.10;;;17.88;100.00;95911.25;5004109;28;20318;-46
2023/08/20 03:38:20;;;;;;;;;;;21.70;54.20;;;17.77;100.00;95917.97;5009825;28;19914;-44
2023/08/20 03:40:46;;;;;;;;;;;21.60;54.20;;;17.72;100.00;95915.34;5004824;28;19962;-43
2023/08/20 03:43:12;;;;;;;;;;;21.60;54.30;;;17.70;100.00;95918.31;5011330;28;19909;-44
2023/08/20 03:45:37;;;;;;;;;;;21.60;54.40;;;17.69;100.00;95926.72;5001495;28;20451;-45
2023/08/20 03:48:04;;;;;;;;;;;21.50;54.40;;;17.67;100.00;95931.59;5006041;28;19932;-44
2023/08/20 03:50:29;;;;;;;;;;;21.50;54.50;;;17.65;100.00;95926.53;4998662;28;19921;-44
2023/08/20 03:52:55;;;;;;;;;;;21.50;54.60;;;17.61;100.00;95928.22;5013080;28;20296;-47
2023/08/20 03:55:21;;;;;;;;;;;21.40;54.60;;;17.58;100.00;95932.31;4997205;28;19985;-43
2023/08/20 03:57:46;;;;;;;;;;;21.40;54.70;;;17.55;100.00;95926.75;5001615;28;19917;-45
2023/08/20 04:00:13;;;;;;;;;;;21.40;54.80;;;17.52;100.00;95920.06;5012984;28;19916;-45
2023/08/20 04:02:38;;;;;;;;;;;21.40;54.90;;;17.55;100.00;95915.97;5006682;28;19913;-45
2023/08/20 04:05:04;;;;;;;;;;;21.40;55.10;;;17.51;100.00;95921.13;5006643;28;19931;-46
2023/08/20 04:07:30;;;;;;;;;;;21.30;55.10;;;17.51;100.00;95917.66;5006998;28;20396;-43
2023/08/20 04:09:56;;;;;;;;;;;21.30;55.20;;;17.53;100.00;95937.81;5007582;28;20330;-44
2023/08/20 04:12:22;;;;;;;;;;;21.30;55.20;;;17.52;100.00;95935.41;5012623;28;19963;-44
2023/08/20 04:14:47;;;;;;;;;;;21.30;55.30;;;17.55;100.00;95938.31;5013664;28;19912;-46
2023/08/20 04:17:13;;;;;;;;;;;21.30;55.40;;;17.55;100.00;95942.91;4995862;28;19996;-45
2023/08/20 04:19:39;;;;;;;;;;;21.30;55.40;;;17.52;100.00;95943.50;5000438;28;19916;-43
2023/08/20 04:22:04;;;;;;;;;;;21.30;55.40;;;17.49;100.00;95941.41;5006650;28;19920;-43
2023/08/20 04:24:30;;;;;;;;;;;21.30;55.50;;;17.49;100.00;95950.28;4995523;28;20383;-50
2023/08/20 04:26:57;;;;;;;;;;;21.30;55.80;;;17.47;100.00;95946.28;5013803;28;19916;-44
2023/08/20 04:29:22;;;;;;;;;;;21.30;55.70;;;17.45;100.00;95951.16;5002287;28;20012;-44
2023/08/20 04:31:48;;;;;;;;;;;21.20;55.60;;;17.40;100.00;95943.19;5000196;28;20411;-48
2023/08/20 04:34:14;;;;;;;;;;;21.20;55.60;;;17.35;100.00;95938.69;4999994;28;20334;-44
2023/08/20 04:36:39;;;;;;;;;;;21.20;55.70;;;17.31;100.00;95935.81;5005525;28;19945;-43
2023/08/20 04:39:05;;;;;;;;;;;21.20;55.70;;;17.32;100.00;95942.78;5005742;28;19909;-44
2023/08/20 04:41:31;;;;;;;;;;;21.20;55.80;;;17.32;100.00;95941.97;5010623;28;19913;-44
2023/08/20 04:43:56;;;;;;;;;;;21.20;55.90;;;17.32;100.00;95939.28;5013352;28;20501;-44
2023/08/20 04:46:22;;;;;;;;;;;21.20;55.90;;;17.33;100.00;95924.75;5013072;28;19935;-44
2023/08/20 04:48:48;;;;;;;;;;;21.20;56.10;;;17.37;100.00;95924.94;5026102;28;19913;-48
2023/08/20 04:51:14;;;;;;;;;;;21.20;56.20;;;17.35;100.00;95928.72;5003427;28;19913;-44
2023/08/20 04:53:40;;;;;;;;;;;21.30;56.20;;;17.43;100.00;95926.44;5009062;28;19992;-44
2023/08/20 04:56:05;;;;;;;;;;;21.30;56.20;;;17.44;100.00;95923.44;5012979;28;19972;-44
2023/08/20 04:58:31;;;;;;;;;;;21.30;56.20;;;17.45;100.00;95925.03;4999513;28;19917;-46
2023/08/20 05:00:57;;;;;;;;;;;21.40;56.30;;;17.49;100.00;95926.03;5004947;28;20007;-44
2023/08/20 05:03:22;;;;;;;;;;;21.40;56.30;;;17.56;100.00;95933.72;5006029;28;20001;-44
2023/08/20 05:05:50;;;;;;;;;;;21.40;56.30;;;17.64;100.00;95930.31;4998811;28;19913;-46
2023/08/20 05:08:16;;;;;;;;;;;21.50;56.30;;;17.75;100.00;95936.28;4999612;28;20395;-43
2023/08/20 05:10:42;;;;;;;;;;;21.60;56.30;;;17.88;100.00;95940.88;5005812;28;19913;-44
2023/08/20 05:13:08;;;;;;;;;;;21.70;56.40;;;18.01;100.00;95941.97;4996476;28;19913;-44
2023/08/20 05:15:34;;;;;;;;;;;21.80;56.40;;;18.17;100.00;95940.50;5005826;28;19909;-44
2023/08/20 05:18:00;;;;;;;;;;;21.90;56.30;;;18.29;100.00;95944.59;5005218;28;20411;-44
2023/08/20 05:20:25;;;;;;;;;;;22.00;56.30;;;18.42;100.00;95938.34;4999619;28;19916;-44
2023/08/20 05:22:51;;;;;;;;;;;22.20;56.30;;;18.61;100.00;95938.16;4998816;28;19909;-44
2023/08/20 05:25:17;;;;;;;;;;;22.40;56.20;;;18.77;100.00;95934.03;5002322;28;20371;-44
2023/08/20 05:27:43;;;;;;;;;;;22.50;56.70;;;18.97;100.00;95940.81;5012366;28;19913;-45
2023/08/20 05:30:09;;;;;;;;;;;22.70;56.00;;;19.15;100.00;95939.00;4994921;28;19952;-46
2023/08/20 05:32:35;;;;;;;;;;;23.00;55.90;;;19.35;100.00;95934.94;5005321;28;20364;-47
2023/08/20 05:35:01;;;;;;;;;;;23.20;55.70;;;19.55;100.00;95945.19;4998572;28;19923;-49
2023/08/20 05:37:27;;;;;;;;;;;23.50;55.50;;;19.77;99.97;95952.44;4999036;28;19941;-45
2023/08/20 05:39:52;;;;;;;;;;;23.80;55.40;;;20.02;98.68;95960.91;5005859;28;19944;-44
2023/08/20 05:42:18;;;;;;;;;;;24.00;55.20;;;20.34;97.29;95959.69;5004543;28;20456;-51
2023/08/20 05:44:44;;;;;;;;;;;24.40;54.90;;;20.69;95.04;95960.50;5012343;28;19924;-43
2023/08/20 05:47:09;;;;;;;;;;;24.80;54.70;;;21.05;88.66;95961.25;5010958;28;19916;-47
2023/08/20 05:49:35;;;;;;;;;;;25.30;54.60;;;21.44;88.65;95957.50;5008184;28;20390;-45
2023/08/20 05:52:02;;;;;;;;;;;25.70;54.20;;;21.80;83.75;95957.00;4998474;28;20063;-44
2023/08/20 05:54:28;;;;;;;;;;;26.10;53.80;;;22.20;80.95;95966.69;5004315;28;19909;-43
2023/08/20 05:56:54;;;;;;;;;;;26.60;53.40;;;22.60;76.14;95967.03;5005226;28;19920;-49
2023/08/20 05:59:19;;;;;;;;;;;27.10;53.10;;;22.94;76.52;95957.81;4996500;28;19909;-45
2023/08/20 06:01:45;;;;;;;;;;;27.50;52.70;;;23.27;71.93;95963.22;5005279;28;19944;-48
2023/08/20 06:04:11;;;;;;;;;;;27.90;52.20;;;23.65;71.04;95970.28;4998593;28;20351;-44
2023/08/20 06:06:36;;;;;;;;;;;28.30;51.80;;;24.00;68.12;95970.66;5010888;28;20356;-46
2023/08/20 06:09:02;;;;;;;;;;;28.70;51.30;;;24.14;66.15;95970.31;5014190;28;19913;-47
2023/08/20 06:11:28;;;;;;;;;;;28.90;51.00;;;24.40;65.29;95971.84;4997980;28;19958;-51
2023/08/20 06:13:54;;;;;;;;;;;29.10;50.60;;;24.50;64.00;95979.56;5010735;28;20003;-44
2023/08/20 06:16:20;;;;;;;;;;;29.30;50.40;;;24.58;64.01;95977.84;5007539;28;19909;-44
2023/08/20 06:18:45;;;;;;;;;;;29.40;50.10;;;24.81;62.51;95976.16;5004584;28;19909;-46
2023/08/20 06:21:12;;;;;;;;;;;29.60;49.80;;;25.06;62.07;95978.78;5011393;28;19908;-44
2023/08/20 06:23:38;;;;;;;;;;;29.90;49.40;;;25.29;59.99;95974.38;5006451;28;19913;-46
2023/08/20 06:26:04;;;;;;;;;;;30.30;49.10;;;25.53;59.05;95976.16;5004516;28;20372;-45
2023/08/20 06:28:30;;;;;;;;;;;30.60;48.70;;;25.75;58.64;95976.69;5011490;28;19909;-45
2023/08/20 06:30:56;;;;;;;;;;;30.90;48.40;;;25.89;58.12;95984.47;5007659;28;19947;-45
2023/08/20 06:33:22;;;;;;;;;;;31.00;48.00;;;25.88;57.79;95975.47;4998382;28;20372;-45
2023/08/20 06:35:47;;;;;;;;;;;31.10;47.70;;;25.98;57.39;95971.41;5004663;28;20438;-45
2023/08/20 06:38:13;;;;;;;;;;;31.40;47.40;;;26.13;57.06;95981.50;4992250;28;19916;-44
2023/08/20 06:40:39;;;;;;;;;;;31.60;47.00;;;26.23;56.25;95970.06;5004560;28;19909;-44
2023/08/20 06:43:04;;;;;;;;;;;31.80;46.60;;;26.35;55.35;95971.06;5010672;28;19916;-46
2023/08/20 06:45:31;;;;;;;;;;;32.00;46.30;;;26.63;54.93;95979.09;5010250;28;19935;-45
2023/08/20 06:47:57;;;;;;;;;;;32.20;46.00;;;26.81;52.72;95976.75;5000860;28;19913;-46
2023/08/20 06:50:23;;;;;;;;;;;32.50;45.80;;;27.06;52.57;95974.50;5009477;28;19913;-48
2023/08/20 06:52:49;;;;;;;;;;;32.70;45.40;;;27.11;51.34;95974.22;5006174;28;20388;-45
2023/08/20 06:55:15;;;;;;;;;;;32.90;45.00;;;27.21;51.92;95981.84;5005986;28;19918;-44
2023/08/20 06:57:40;;;;;;;;;;;33.10;44.70;;;27.40;51.52;95984.56;4995701;28;20399;-45
2023/08/20 07:00:07;;;;;;;;;;;33.30;44.40;;;27.37;51.68;95992.69;5001145;28;19913;-45
2023/08/20 07:02:32;;;;;;;;;;;33.50;44.10;;;27.66;50.93;95983.03;5007673;28;19978;-45
2023/08/20 07:04:58;;;;;;;;;;;33.60;43.80;;;27.99;50.29;95985.19;5014125;28;20007;-50
2023/08/20 07:07:24;;;;;;;;;;;33.80;43.60;;;28.35;48.95;95978.25;5008746;28;20390;-45
2023/08/20 07:09:50;;;;;;;;;;;34.00;43.40;;;28.50;47.97;95979.28;4998276;28;19931;-47
2023/08/20 07:12:16;;;;;;;;;;;34.30;43.10;;;28.64;47.80;95981.41;5001858;28;20003;-46
2023/08/20 07:14:42;;;;;;;;;;;34.50;42.80;;;28.88;46.39;95984.84;5000612;28;19909;-46
2023/08/20 07:17:07;;;;;;;;;;;34.70;42.50;;;29.05;46.43;95990.59;4994570;28;20434;-45
2023/08/20 07:19:33;;;;;;;;;;;35.00;42.10;;;29.41;46.02;95992.91;5011798;28;19918;-48
2023/08/20 07:21:59;;;;;;;;;;;35.20;41.80;;;29.79;44.58;95985.44;5006430;28;19917;-45
2023/08/20 07:24:25;;;;;;;;;;;35.40;41.40;;;29.83;44.28;95998.03;4998425;28;19921;-44
2023/08/20 07:26:59;;;;;;;;;;;35.70;41.10;;;29.91;44.71;95996.91;5004919;28;19913;-46
2023/08/20 07:29:25;;;;;;;;;;;35.90;40.80;;;30.01;44.50;96000.91;4996786;28;20052;-45
2023/08/20 07:31:51;;;;;;;;;;;36.10;40.50;;;30.16;44.07;95999.84;4998599;28;19920;-45
2023/08/20 07:34:17;;;;;;;;;;;36.20;40.10;;;30.17;44.41;96001.44;4995523;28;19914;-47
2023/08/20 07:36:43;;;;;;;;;;;36.40;39.90;;;30.44;44.02;95998.50;5001739;28;19917;-47
2023/08/20 07:39:08;;;;;;;;;;;36.60;39.70;;;30.60;44.05;96006.44;4994253;28;19913;-49
2023/08/20 07:41:34;;;;;;;;;;;36.70;39.40;;;30.81;42.62;95997.56;4996827;28;19909;-45
2023/08/20 07:44:00;;;;;;;;;;;37.00;39.20;;;31.10;42.54;96006.69;5007365;28;20320;-48
2023/08/20 07:46:26;;;;;;;;;;;37.00;39.00;;;31.31;42.18;96001.28;5007373;28;19935;-48
2023/08/20 07:48:52;;;;;;;;;;;37.20;38.70;;;31.48;41.23;96007.22;5009737;28;19962;-45
2023/08/20 07:51:18;;;;;;;;;;;37.40;38.40;;;31.73;40.82;96002.53;5013658;28;20371;-45
2023/08/20 07:53:43;;;;;;;;;;;37.50;38.00;;;31.87;40.11;96007.28;5009671;28;19913;-47
2023/08/20 07:56:09;;;;;;;;;;;37.70;37.80;;;31.85;39.98;96006.09;4996617;28;19916;-47
2023/08/20 07:58:35;;;;;;;;;;;37.90;37.60;;;31.90;40.10;96009.25;4998886;28;19917;-47
2023/08/20 08:01:01;;;;;;;;;;;38.10;37.30;;;32.09;40.08;96007.28;5001113;28;19913;-45
2023/08/20 08:03:27;;;;;;;;;;;38.20;37.00;;;32.20;39.14;96003.34;5006749;28;19916;-47
2023/08/20 08:05:54;;;;;;;;;;;38.40;36.80;;;32.38;38.83;95995.06;5017729;28;19996;-47
2023/08/20 08:08:21;;;;;;;;;;;38.50;36.60;;;32.55;37.82;95999.00;5010556;28;19909;-46
2023/08/20 08:10:46;;;;;;;;;;;38.70;36.20;;;32.62;37.55;96004.47;5002779;28;19913;-48
2023/08/20 08:13:20;;;;;;;;;;;38.80;36.00;;;32.78;37.84;96009.59;5012355;28;20260;-50
2023/08/20 08:15:46;;;;;;;;;;;39.10;35.80;;;33.13;37.75;96005.16;5010196;28;19909;-48
2023/08/20 08:18:12;;;;;;;;;;;39.20;35.50;;;33.24;37.02;96013.34;5013511;28;20003;-46
2023/08/20 08:20:38;;;;;;;;;;;39.40;35.30;;;33.45;36.86;96009.69;5001394;28;20011;-47
2023/08/20 08:23:04;;;;;;;;;;;39.50;35.00;;;33.67;36.34;96008.41;5014178;28;20012;-46
2023/08/20 08:25:30;;;;;;;;;;;39.70;34.80;;;34.03;36.65;96010.91;5015182;28;20526;-47
2023/08/20 08:27:56;;;;;;;;;;;40.00;34.60;;;33.83;36.89;96013.41;5001236;28;19916;-46
2023/08/20 08:30:22;;;;;;;;;;;40.20;34.40;;;33.64;37.00;96014.72;5010592;28;19920;-45
2023/08/20 08:32:48;;;;;;;;;;;40.40;34.10;;;33.98;35.41;96017.66;5001038;28;19952;-48
2023/08/20 08:35:14;;;;;;;;;;;40.50;33.80;;;34.07;35.93;96028.28;5001364;28;19975;-46
2023/08/20 08:37:39;;;;;;;;;;;40.70;33.60;;;34.20;35.71;96014.75;5000570;28;19931;-46
2023/08/20 08:40:06;;;;;;;;;;;40.80;33.40;;;34.21;36.91;96014.31;5014008;28;19909;-46
2023/08/20 08:42:35;;;;;;;;;;;40.90;33.80;;;34.10;34.90;96013.63;5013151;28;20367;-46
2023/08/20 08:45:03;;;;;;;;;;;41.00;33.00;;;34.21;34.97;96013.53;5011439;28;20011;-53
2023/08/20 08:47:30;;;;;;;;;;;41.00;32.70;;;34.42;34.56;96018.09;5010681;28;19924;-49
2023/08/20 08:49:56;;;;;;;;;;;41.10;32.60;;;34.68;34.04;96017.44;5009320;28;19909;-50
2023/08/20 08:52:26;;;;;;;;;;;41.20;32.40;;;34.72;33.46;96011.88;5007551;28;19913;-48
2023/08/20 08:54:53;;;;;;;;;;;41.30;32.20;;;35.16;32.50;96018.50;5009235;28;19909;-47
2023/08/20 08:57:19;;;;;;;;;;;41.50;32.00;;;35.53;32.88;96020.41;5025653;28;20268;-48
2023/08/20 08:59:45;;;;;;;;;;;41.70;31.90;;;35.48;32.75;96026.41;5004888;28;20295;-48
2023/08/20 09:02:13;;;;;;;;;;;41.90;31.60;;;35.75;31.41;96020.88;5000450;28;19959;-47
2023/08/20 09:04:40;;;;;;;;;;;42.00;31.40;;;36.00;31.26;96023.25;5013461;28;19909;-48
2023/08/20 09:07:12;;;;;;;;;;;42.20;31.20;;;36.49;31.16;96014.56;5005094;28;19909;-51
2023/08/20 09:09:43;;;;;;;;;;;42.40;31.00;;;36.92;31.27;96020.09;5007103;28;20004;-49
2023/08/20 09:12:16;;;;;;;;;;;42.70;30.90;;;37.11;31.43;96015.00;5001840;28;19956;-48
2023/08/20 09:14:54;;;;;;;;;;;43.00;30.60;;;37.09;30.68;96020.19;5001770;28;20414;-46
2023/08/20 09:17:20;;;;;;;;;;;43.10;30.40;;;37.18;29.78;96012.09;4994036;28;19913;-51
2023/08/20 09:19:46;;;;;;;;;;;43.30;30.20;;;37.03;29.88;96012.38;5001808;28;19949;-46
2023/08/20 09:22:14;;;;;;;;;;;43.40;30.00;;;36.96;30.14;96012.47;5006151;28;19963;-48
2023/08/20 09:24:45;;;;;;;;;;;43.40;29.90;;;37.09;30.74;96012.66;5001484;28;19909;-46
2023/08/20 09:27:12;;;;;;;;;;;43.60;29.80;;;37.18;30.16;96012.84;5005128;28;19913;-46
2023/08/20 09:29:46;;;;;;;;;;;43.60;29.60;;;37.22;29.88;96008.00;4992604;28;20444;-46
2023/08/20 09:32:18;;;;;;;;;;;43.60;29.30;;;37.44;29.41;96013.88;5003372;28;19914;-47
2023/08/20 09:34:45;;;;;;;;;;;43.50;29.20;;;36.94;30.74;96011.34;5004461;28;19917;-48
2023/08/20 09:37:13;;;;;;;;;;;43.50;29.20;;;37.13;30.29;96010.56;4995666;28;20012;-46
2023/08/20 09:39:40;;;;;;;;;;;43.50;29.20;;;37.54;29.88;96014.88;5022018;28;19971;-47
2023/08/20 09:42:09;;;;;;;;;;;43.60;29.20;;;37.64;29.35;96013.88;4997558;28;19979;-47
2023/08/20 09:44:39;;;;;;;;;;;43.80;29.20;;;37.68;29.08;96016.56;4994558;28;20372;-57
2023/08/20 09:47:11;;;;;;;;;;;43.90;29.00;;;37.88;29.32;96022.81;4997608;28;19909;-52
2023/08/20 09:49:41;;;;;;;;;;;44.00;28.80;;;38.21;29.38;96022.09;4998619;28;19909;-46
2023/08/20 09:52:14;;;;;;;;;;;44.10;28.70;;;38.35;28.76;96028.06;5001264;28;19921;-47
2023/08/20 09:55:04;;;;;;;;;;;44.20;28.50;;;38.69;28.67;96017.69;5003974;28;19908;-47
2023/08/20 09:57:39;;;;;;;;;;;44.50;28.50;;;38.86;27.63;96013.66;4999584;28;19917;-47
2023/08/20 10:00:11;;;;;;;;;;;44.60;28.30;;;39.15;27.64;96019.22;5006731;28;19909;-47
2023/08/20 10:02:38;;;;;;;;;;;44.70;28.30;;;39.33;26.87;96019.50;5005383;28;20019;-46
2023/08/20 10:05:07;;;;;;;;;;;44.90;28.10;;;39.47;27.99;96017.50;5006767;28;19947;-56
2023/08/20 10:07:35;;;;;;;;;;;45.10;28.00;;;39.70;27.26;96014.38;5004651;28;19944;-47
2023/08/20 10:10:07;;;;;;;;;;;45.20;27.90;;;39.66;26.98;96012.94;5006010;28;20363;-47
2023/08/20 10:12:34;;;;;;;;;;;45.30;27.80;;;39.65;27.39;96008.63;4994864;28;19914;-46
2023/08/20 10:15:02;;;;;;;;;;;45.40;27.70;;;39.34;27.29;96011.94;4999169;28;20352;-47
2023/08/20 10:17:33;;;;;;;;;;;45.50;27.60;;;39.49;27.61;96012.28;5011217;28;20145;-48
2023/08/20 10:20:06;;;;;;;;;;;45.70;27.50;;;39.50;27.37;96016.63;4999281;28;19916;-48
2023/08/20 10:22:43;;;;;;;;;;;45.80;27.40;;;39.22;27.73;96010.66;5000456;28;19996;-47
2023/08/20 10:25:12;;;;;;;;;;;45.90;27.30;;;39.26;27.51;96014.09;5002147;28;20265;-48
2023/08/20 10:27:42;;;;;;;;;;;46.00;27.20;;;39.03;27.30;96014.41;5018149;28;19909;-51
2023/08/20 10:30:25;;;;;;;;;;;46.00;27.00;;;38.97;27.03;96018.94;5003114;28;19909;-47
2023/08/20 10:32:58;;;;;;;;;;;46.00;27.00;;;38.80;28.33;96004.25;5008841;28;20363;-49
2023/08/20 10:35:47;;;;;;;;;;;46.00;26.90;;;39.17;27.35;96004.84;5001524;28;19909;-50
2023/08/20 10:38:18;;;;;;;;;;;46.10;27.40;;;39.26;28.25;96008.53;5000142;28;19909;-46
2023/08/20 10:40:59;;;;;;;;;;;46.10;26.80;;;39.39;26.75;96008.56;4996693;28;19945;-53
2023/08/20 10:43:35;;;;;;;;;;;46.10;26.50;;;39.76;26.25;96007.06;5002154;28;20052;-50
2023/08/20 10:46:18;;;;;;;;;;;46.20;26.60;;;39.73;26.06;96001.59;5007630;28;19914;-49
2023/08/20 10:48:57;;;;;;;;;;;46.30;26.50;;;39.97;25.96;95999.25;4991438;28;19916;-47
2023/08/20 10:51:33;;;;;;;;;;;46.50;26.40;;;40.34;25.46;95991.28;5007255;28;19921;-46
2023/08/20 10:54:03;;;;;;;;;;;46.70;26.30;;;40.57;25.40;96004.81;5007767;28;19917;-46
2023/08/20 10:56:46;;;;;;;;;;;46.90;26.20;;;40.68;24.97;95999.69;5003540;28;19940;-45
2023/08/20 10:59:21;;;;;;;;;;;47.10;26.10;;;40.90;25.36;96005.28;5001060;28;20273;-46
2023/08/20 11:01:53;;;;;;;;;;;47.30;26.00;;;40.92;25.80;96002.00;4997156;28;19972;-48
2023/08/20 11:04:22;;;;;;;;;;;47.40;25.90;;;40.92;24.83;95996.44;4999710;28;20363;-46
2023/08/20 11:06:54;;;;;;;;;;;47.50;25.80;;;41.19;24.73;95995.09;5005863;28;20000;-46
2023/08/20 11:09:28;;;;;;;;;;;47.70;25.70;;;41.24;24.62;95995.25;5007357;28;19948;-46
2023/08/20 11:11:55;;;;;;;;;;;47.80;25.60;;;41.01;24.23;95995.72;4994336;28;19917;-54
2023/08/20 11:14:22;;;;;;;;;;;47.90;25.40;;;41.17;25.36;95995.53;4992553;28;20000;-46
2023/08/20 11:16:49;;;;;;;;;;;47.90;25.30;;;40.98;25.63;95991.03;4993450;28;19909;-46